sensor_id;sensor_type;location;lat;lon;timestamp;P1;durP1;ratioP1;P2;durP2;ratioP2
29330;SDS011;16331;52.528;13.342;2022-12-10T00:01:55;23.02;;;8.52;;
29330;SDS011;16331;52.528;13.342;2022-12-10T00:04:22;24.60;;;8.90;;
29330;SDS011;16331;52.528;13.342;2022-12-10T00:06:48;18.85;;;7.60;;
29330;SDS011;16331;52.528;13.342;2022-12-10T00:09:15;25.95;;;8.55;;
29330;SDS011;16331;52.528;13.342;2022-12-10T00:11:43;21.50;;;7.57;;
29330;SDS011;16331;52.528;13.342;2022-12-10T00:14:10;23.33;;;7.82;;
29330;SDS011;16331;52.528;13.342;2022-12-10T00:16:37;22.17;;;8.70;;
29330;SDS011;16331;52.528;13.342;2022-12-10T00:19:04;19.17;;;7.90;;
29330;SDS011;16331;52.528;13.342;2022-12-10T00:21:33;24.55;;;8.55;;
29330;SDS011;16331;52.528;13.342;2022-12-10T00:24:01;30.33;;;9.75;;
29330;SDS011;16331;52.528;13.342;2022-12-10T00:26:32;19.23;;;8.07;;
29330;SDS011;16331;52.528;13.342;2022-12-10T00:29:04;16.85;;;7.55;;
29330;SDS011;16331;52.528;13.342;2022-12-10T00:31:33;24.60;;;8.18;;
29330;SDS011;16331;52.528;13.342;2022-12-10T00:34:03;25.88;;;8.98;;
29330;SDS011;16331;52.528;13.342;2022-12-10T00:36:35;23.25;;;9.60;;
29330;SDS011;16331;52.528;13.342;2022-12-10T00:39:10;29.25;;;8.68;;
29330;SDS011;16331;52.528;13.342;2022-12-10T00:41:38;22.50;;;8.90;;
29330;SDS011;16331;52.528;13.342;2022-12-10T00:44:04;23.40;;;7.75;;
29330;SDS011;16331;52.528;13.342;2022-12-10T00:46:31;27.90;;;8.93;;
29330;SDS011;16331;52.528;13.342;2022-12-10T00:48:58;22.95;;;9.35;;
29330;SDS011;16331;52.528;13.342;2022-12-10T00:51:26;23.08;;;8.23;;
29330;SDS011;16331;52.528;13.342;2022-12-10T00:53:54;24.17;;;9.00;;
29330;SDS011;16331;52.528;13.342;2022-12-10T00:56:23;20.73;;;7.20;;
29330;SDS011;16331;52.528;13.342;2022-12-10T00:58:54;26.65;;;8.60;;
29330;SDS011;16331;52.528;13.342;2022-12-10T01:01:34;24.83;;;9.57;;
29330;SDS011;16331;52.528;13.342;2022-12-10T01:04:06;23.90;;;8.15;;
29330;SDS011;16331;52.528;13.342;2022-12-10T01:06:42;14.65;;;7.00;;
29330;SDS011;16331;52.528;13.342;2022-12-10T01:09:18;23.48;;;8.95;;
29330;SDS011;16331;52.528;13.342;2022-12-10T01:14:20;22.92;;;7.13;;
29330;SDS011;16331;52.528;13.342;2022-12-10T01:16:53;22.42;;;7.13;;
29330;SDS011;16331;52.528;13.342;2022-12-10T01:19:21;21.30;;;7.10;;
29330;SDS011;16331;52.528;13.342;2022-12-10T01:21:54;24.88;;;8.48;;
29330;SDS011;16331;52.528;13.342;2022-12-10T01:24:21;20.98;;;8.43;;
29330;SDS011;16331;52.528;13.342;2022-12-10T01:26:49;22.02;;;8.30;;
29330;SDS011;16331;52.528;13.342;2022-12-10T01:29:15;27.27;;;7.75;;
29330;SDS011;16331;52.528;13.342;2022-12-10T01:31:43;25.02;;;8.20;;
29330;SDS011;16331;52.528;13.342;2022-12-10T01:34:16;22.63;;;7.60;;
29330;SDS011;16331;52.528;13.342;2022-12-10T01:36:44;20.88;;;6.72;;
29330;SDS011;16331;52.528;13.342;2022-12-10T01:39:17;17.52;;;6.63;;
29330;SDS011;16331;52.528;13.342;2022-12-10T01:41:46;21.67;;;8.15;;
29330;SDS011;16331;52.528;13.342;2022-12-10T01:46:46;21.50;;;8.55;;
29330;SDS011;16331;52.528;13.342;2022-12-10T01:49:24;19.05;;;7.53;;
29330;SDS011;16331;52.528;13.342;2022-12-10T01:51:56;21.88;;;7.53;;
29330;SDS011;16331;52.528;13.342;2022-12-10T01:54:24;21.27;;;7.63;;
29330;SDS011;16331;52.528;13.342;2022-12-10T01:56:54;17.67;;;7.75;;
29330;SDS011;16331;52.528;13.342;2022-12-10T01:59:26;16.70;;;7.82;;
29330;SDS011;16331;52.528;13.342;2022-12-10T02:09:42;18.25;;;6.68;;
29330;SDS011;16331;52.528;13.342;2022-12-10T02:12:34;25.00;;;9.70;;
29330;SDS011;16331;52.528;13.342;2022-12-10T02:15:21;20.38;;;7.47;;
29330;SDS011;16331;52.528;13.342;2022-12-10T02:17:57;22.42;;;7.47;;
29330;SDS011;16331;52.528;13.342;2022-12-10T02:20:42;24.17;;;7.85;;
29330;SDS011;16331;52.528;13.342;2022-12-10T02:26:09;28.55;;;8.68;;
29330;SDS011;16331;52.528;13.342;2022-12-10T02:33:43;18.67;;;7.65;;
29330;SDS011;16331;52.528;13.342;2022-12-10T02:36:17;23.75;;;8.13;;
29330;SDS011;16331;52.528;13.342;2022-12-10T02:38:45;20.77;;;7.28;;
29330;SDS011;16331;52.528;13.342;2022-12-10T02:41:16;24.45;;;9.80;;
29330;SDS011;16331;52.528;13.342;2022-12-10T02:43:51;26.20;;;7.50;;
29330;SDS011;16331;52.528;13.342;2022-12-10T02:46:19;18.77;;;7.32;;
29330;SDS011;16331;52.528;13.342;2022-12-10T02:48:49;20.33;;;8.52;;
29330;SDS011;16331;52.528;13.342;2022-12-10T02:51:17;19.92;;;7.82;;
29330;SDS011;16331;52.528;13.342;2022-12-10T02:53:43;21.27;;;8.32;;
29330;SDS011;16331;52.528;13.342;2022-12-10T02:56:15;24.02;;;8.93;;
29330;SDS011;16331;52.528;13.342;2022-12-10T03:04:10;22.92;;;9.10;;
29330;SDS011;16331;52.528;13.342;2022-12-10T03:06:56;22.23;;;8.85;;
29330;SDS011;16331;52.528;13.342;2022-12-10T03:10:02;25.30;;;9.30;;
29330;SDS011;16331;52.528;13.342;2022-12-10T03:12:29;24.02;;;9.55;;
29330;SDS011;16331;52.528;13.342;2022-12-10T03:15:03;27.60;;;9.30;;
29330;SDS011;16331;52.528;13.342;2022-12-10T03:17:33;23.63;;;8.60;;
29330;SDS011;16331;52.528;13.342;2022-12-10T03:20:01;25.08;;;8.07;;
29330;SDS011;16331;52.528;13.342;2022-12-10T03:22:34;32.15;;;11.10;;
29330;SDS011;16331;52.528;13.342;2022-12-10T03:25:06;26.13;;;9.30;;
29330;SDS011;16331;52.528;13.342;2022-12-10T03:27:36;19.92;;;8.40;;
29330;SDS011;16331;52.528;13.342;2022-12-10T03:30:04;23.23;;;8.70;;
29330;SDS011;16331;52.528;13.342;2022-12-10T03:32:31;31.98;;;11.65;;
29330;SDS011;16331;52.528;13.342;2022-12-10T03:34:58;27.92;;;9.48;;
29330;SDS011;16331;52.528;13.342;2022-12-10T03:37:26;21.30;;;7.38;;
29330;SDS011;16331;52.528;13.342;2022-12-10T03:39:54;30.90;;;10.52;;
29330;SDS011;16331;52.528;13.342;2022-12-10T03:42:23;26.55;;;9.02;;
29330;SDS011;16331;52.528;13.342;2022-12-10T03:44:50;29.67;;;9.07;;
29330;SDS011;16331;52.528;13.342;2022-12-10T03:47:17;23.70;;;8.38;;
29330;SDS011;16331;52.528;13.342;2022-12-10T03:49:44;26.00;;;8.73;;
29330;SDS011;16331;52.528;13.342;2022-12-10T03:52:11;31.20;;;10.05;;
29330;SDS011;16331;52.528;13.342;2022-12-10T03:54:38;37.25;;;10.77;;
29330;SDS011;16331;52.528;13.342;2022-12-10T03:57:04;28.77;;;9.07;;
29330;SDS011;16331;52.528;13.342;2022-12-10T03:59:30;25.42;;;7.70;;
29330;SDS011;16331;52.528;13.342;2022-12-10T04:01:57;26.45;;;9.23;;
29330;SDS011;16331;52.528;13.342;2022-12-10T04:04:23;26.60;;;10.05;;
29330;SDS011;16331;52.528;13.342;2022-12-10T04:06:51;32.35;;;10.95;;
29330;SDS011;16331;52.528;13.342;2022-12-10T04:09:17;25.33;;;8.88;;
29330;SDS011;16331;52.528;13.342;2022-12-10T04:11:44;30.83;;;9.75;;
29330;SDS011;16331;52.528;13.342;2022-12-10T04:14:12;31.85;;;11.27;;
29330;SDS011;16331;52.528;13.342;2022-12-10T04:16:57;25.30;;;8.27;;
29330;SDS011;16331;52.528;13.342;2022-12-10T04:19:23;22.83;;;8.25;;
29330;SDS011;16331;52.528;13.342;2022-12-10T04:21:50;28.50;;;8.48;;
29330;SDS011;16331;52.528;13.342;2022-12-10T04:24:36;27.25;;;8.93;;
29330;SDS011;16331;52.528;13.342;2022-12-10T04:29:53;19.52;;;9.13;;
29330;SDS011;16331;52.528;13.342;2022-12-10T04:32:20;26.17;;;9.73;;
29330;SDS011;16331;52.528;13.342;2022-12-10T04:34:47;25.13;;;9.02;;
29330;SDS011;16331;52.528;13.342;2022-12-10T04:37:14;22.80;;;9.77;;
29330;SDS011;16331;52.528;13.342;2022-12-10T04:39:40;30.05;;;9.52;;
29330;SDS011;16331;52.528;13.342;2022-12-10T04:42:08;27.00;;;9.43;;
29330;SDS011;16331;52.528;13.342;2022-12-10T04:44:36;33.53;;;10.50;;
29330;SDS011;16331;52.528;13.342;2022-12-10T04:47:05;27.98;;;10.23;;
29330;SDS011;16331;52.528;13.342;2022-12-10T04:49:33;26.70;;;9.35;;
29330;SDS011;16331;52.528;13.342;2022-12-10T04:51:59;27.02;;;9.45;;
29330;SDS011;16331;52.528;13.342;2022-12-10T04:54:26;30.23;;;9.63;;
29330;SDS011;16331;52.528;13.342;2022-12-10T04:56:55;23.65;;;9.65;;
29330;SDS011;16331;52.528;13.342;2022-12-10T04:59:22;26.45;;;8.98;;
29330;SDS011;16331;52.528;13.342;2022-12-10T05:01:52;27.65;;;9.65;;
29330;SDS011;16331;52.528;13.342;2022-12-10T05:04:19;22.80;;;8.70;;
29330;SDS011;16331;52.528;13.342;2022-12-10T05:06:47;26.80;;;9.35;;
29330;SDS011;16331;52.528;13.342;2022-12-10T05:09:14;23.30;;;8.10;;
29330;SDS011;16331;52.528;13.342;2022-12-10T05:11:44;22.67;;;8.10;;
29330;SDS011;16331;52.528;13.342;2022-12-10T05:14:11;31.63;;;9.98;;
29330;SDS011;16331;52.528;13.342;2022-12-10T05:16:39;23.30;;;8.10;;
29330;SDS011;16331;52.528;13.342;2022-12-10T05:19:06;19.58;;;7.88;;
29330;SDS011;16331;52.528;13.342;2022-12-10T05:21:33;22.83;;;8.45;;
29330;SDS011;16331;52.528;13.342;2022-12-10T05:24:18;25.45;;;7.57;;
29330;SDS011;16331;52.528;13.342;2022-12-10T05:26:44;19.95;;;8.98;;
29330;SDS011;16331;52.528;13.342;2022-12-10T05:29:12;22.60;;;8.93;;
29330;SDS011;16331;52.528;13.342;2022-12-10T05:31:39;23.67;;;8.70;;
29330;SDS011;16331;52.528;13.342;2022-12-10T05:34:06;19.85;;;7.28;;
29330;SDS011;16331;52.528;13.342;2022-12-10T05:36:35;18.45;;;7.43;;
29330;SDS011;16331;52.528;13.342;2022-12-10T05:39:01;16.70;;;7.80;;
29330;SDS011;16331;52.528;13.342;2022-12-10T05:41:29;18.25;;;7.10;;
29330;SDS011;16331;52.528;13.342;2022-12-10T05:43:58;25.52;;;8.25;;
29330;SDS011;16331;52.528;13.342;2022-12-10T05:46:28;25.17;;;8.70;;
29330;SDS011;16331;52.528;13.342;2022-12-10T05:48:55;22.95;;;8.30;;
29330;SDS011;16331;52.528;13.342;2022-12-10T05:51:26;23.00;;;7.60;;
29330;SDS011;16331;52.528;13.342;2022-12-10T05:53:55;15.02;;;7.45;;
29330;SDS011;16331;52.528;13.342;2022-12-10T05:56:26;23.50;;;9.13;;
29330;SDS011;16331;52.528;13.342;2022-12-10T05:58:55;18.15;;;7.07;;
29330;SDS011;16331;52.528;13.342;2022-12-10T06:01:26;20.60;;;7.40;;
29330;SDS011;16331;52.528;13.342;2022-12-10T06:03:54;21.80;;;6.97;;
29330;SDS011;16331;52.528;13.342;2022-12-10T06:06:22;19.10;;;7.53;;
29330;SDS011;16331;52.528;13.342;2022-12-10T06:08:50;17.30;;;6.00;;
29330;SDS011;16331;52.528;13.342;2022-12-10T06:11:17;23.38;;;8.48;;
29330;SDS011;16331;52.528;13.342;2022-12-10T06:13:44;20.42;;;7.97;;
29330;SDS011;16331;52.528;13.342;2022-12-10T06:16:11;21.17;;;7.13;;
29330;SDS011;16331;52.528;13.342;2022-12-10T06:18:39;21.95;;;7.78;;
29330;SDS011;16331;52.528;13.342;2022-12-10T06:21:07;16.35;;;6.28;;
29330;SDS011;16331;52.528;13.342;2022-12-10T06:23:36;18.65;;;7.72;;
29330;SDS011;16331;52.528;13.342;2022-12-10T06:26:07;20.90;;;7.35;;
29330;SDS011;16331;52.528;13.342;2022-12-10T06:28:36;19.23;;;7.40;;
29330;SDS011;16331;52.528;13.342;2022-12-10T06:31:03;15.30;;;6.70;;
29330;SDS011;16331;52.528;13.342;2022-12-10T06:33:29;18.08;;;6.53;;
29330;SDS011;16331;52.528;13.342;2022-12-10T06:35:56;28.48;;;8.43;;
29330;SDS011;16331;52.528;13.342;2022-12-10T06:38:22;18.48;;;6.53;;
29330;SDS011;16331;52.528;13.342;2022-12-10T06:40:50;19.23;;;7.40;;
29330;SDS011;16331;52.528;13.342;2022-12-10T06:43:16;20.95;;;8.15;;
29330;SDS011;16331;52.528;13.342;2022-12-10T06:45:43;17.73;;;7.10;;
29330;SDS011;16331;52.528;13.342;2022-12-10T06:48:09;15.98;;;7.72;;
29330;SDS011;16331;52.528;13.342;2022-12-10T06:50:35;19.90;;;7.50;;
29330;SDS011;16331;52.528;13.342;2022-12-10T06:53:02;18.05;;;7.85;;
29330;SDS011;16331;52.528;13.342;2022-12-10T06:55:31;17.65;;;7.18;;
29330;SDS011;16331;52.528;13.342;2022-12-10T06:57:57;18.80;;;7.50;;
29330;SDS011;16331;52.528;13.342;2022-12-10T07:00:23;17.40;;;7.07;;
29330;SDS011;16331;52.528;13.342;2022-12-10T07:02:50;15.20;;;7.25;;
29330;SDS011;16331;52.528;13.342;2022-12-10T07:05:16;14.35;;;5.80;;
29330;SDS011;16331;52.528;13.342;2022-12-10T07:07:42;15.93;;;6.55;;
29330;SDS011;16331;52.528;13.342;2022-12-10T07:10:08;21.70;;;8.05;;
29330;SDS011;16331;52.528;13.342;2022-12-10T07:12:35;12.68;;;6.60;;
29330;SDS011;16331;52.528;13.342;2022-12-10T07:15:01;14.52;;;7.18;;
29330;SDS011;16331;52.528;13.342;2022-12-10T07:17:29;20.77;;;7.00;;
29330;SDS011;16331;52.528;13.342;2022-12-10T07:19:55;14.18;;;5.85;;
29330;SDS011;16331;52.528;13.342;2022-12-10T07:22:22;21.33;;;7.57;;
29330;SDS011;16331;52.528;13.342;2022-12-10T07:24:48;13.38;;;5.90;;
29330;SDS011;16331;52.528;13.342;2022-12-10T07:27:15;19.80;;;8.27;;
29330;SDS011;16331;52.528;13.342;2022-12-10T07:29:43;19.33;;;7.65;;
29330;SDS011;16331;52.528;13.342;2022-12-10T07:32:09;14.35;;;6.65;;
29330;SDS011;16331;52.528;13.342;2022-12-10T07:34:37;10.73;;;5.97;;
29330;SDS011;16331;52.528;13.342;2022-12-10T07:37:03;16.77;;;6.95;;
29330;SDS011;16331;52.528;13.342;2022-12-10T07:39:32;16.85;;;7.35;;
29330;SDS011;16331;52.528;13.342;2022-12-10T07:41:58;15.85;;;6.53;;
29330;SDS011;16331;52.528;13.342;2022-12-10T07:44:25;16.00;;;6.90;;
29330;SDS011;16331;52.528;13.342;2022-12-10T07:46:52;17.27;;;7.13;;
29330;SDS011;16331;52.528;13.342;2022-12-10T07:49:20;11.73;;;6.03;;
29330;SDS011;16331;52.528;13.342;2022-12-10T07:51:48;13.57;;;6.32;;
29330;SDS011;16331;52.528;13.342;2022-12-10T07:54:16;14.15;;;7.18;;
29330;SDS011;16331;52.528;13.342;2022-12-10T07:56:42;18.30;;;6.28;;
29330;SDS011;16331;52.528;13.342;2022-12-10T07:59:09;13.55;;;6.40;;
29330;SDS011;16331;52.528;13.342;2022-12-10T08:01:35;20.05;;;7.38;;
29330;SDS011;16331;52.528;13.342;2022-12-10T08:04:01;14.98;;;7.60;;
29330;SDS011;16331;52.528;13.342;2022-12-10T08:06:28;15.77;;;5.93;;
29330;SDS011;16331;52.528;13.342;2022-12-10T08:08:57;18.75;;;6.60;;
29330;SDS011;16331;52.528;13.342;2022-12-10T08:11:24;16.67;;;8.10;;
29330;SDS011;16331;52.528;13.342;2022-12-10T08:13:51;17.75;;;6.53;;
29330;SDS011;16331;52.528;13.342;2022-12-10T08:16:19;16.65;;;7.15;;
29330;SDS011;16331;52.528;13.342;2022-12-10T08:18:48;15.63;;;6.32;;
29330;SDS011;16331;52.528;13.342;2022-12-10T08:21:16;16.52;;;8.00;;
29330;SDS011;16331;52.528;13.342;2022-12-10T08:23:44;22.23;;;9.20;;
29330;SDS011;16331;52.528;13.342;2022-12-10T08:26:15;15.52;;;7.13;;
29330;SDS011;16331;52.528;13.342;2022-12-10T08:28:43;21.80;;;7.43;;
29330;SDS011;16331;52.528;13.342;2022-12-10T08:31:10;17.48;;;7.47;;
29330;SDS011;16331;52.528;13.342;2022-12-10T08:33:39;20.85;;;8.13;;
29330;SDS011;16331;52.528;13.342;2022-12-10T08:36:06;17.92;;;7.97;;
29330;SDS011;16331;52.528;13.342;2022-12-10T08:38:34;18.13;;;7.97;;
29330;SDS011;16331;52.528;13.342;2022-12-10T08:41:17;20.20;;;8.48;;
29330;SDS011;16331;52.528;13.342;2022-12-10T08:43:45;22.85;;;9.15;;
29330;SDS011;16331;52.528;13.342;2022-12-10T08:46:16;23.00;;;8.85;;
29330;SDS011;16331;52.528;13.342;2022-12-10T08:48:42;18.65;;;9.00;;
29330;SDS011;16331;52.528;13.342;2022-12-10T08:51:10;14.45;;;8.00;;
29330;SDS011;16331;52.528;13.342;2022-12-10T08:53:38;24.05;;;7.63;;
29330;SDS011;16331;52.528;13.342;2022-12-10T08:56:05;17.50;;;7.32;;
29330;SDS011;16331;52.528;13.342;2022-12-10T08:58:31;21.77;;;8.10;;
29330;SDS011;16331;52.528;13.342;2022-12-10T09:00:58;22.48;;;7.72;;
29330;SDS011;16331;52.528;13.342;2022-12-10T09:03:27;24.45;;;7.75;;
29330;SDS011;16331;52.528;13.342;2022-12-10T09:05:53;20.02;;;7.55;;
29330;SDS011;16331;52.528;13.342;2022-12-10T09:08:19;22.50;;;8.90;;
29330;SDS011;16331;52.528;13.342;2022-12-10T09:10:45;18.10;;;8.05;;
29330;SDS011;16331;52.528;13.342;2022-12-10T09:13:17;28.50;;;9.63;;
29330;SDS011;16331;52.528;13.342;2022-12-10T09:15:51;22.00;;;7.10;;
29330;SDS011;16331;52.528;13.342;2022-12-10T09:18:27;21.27;;;8.30;;
29330;SDS011;16331;52.528;13.342;2022-12-10T09:20:54;23.23;;;8.60;;
29330;SDS011;16331;52.528;13.342;2022-12-10T09:23:20;21.75;;;7.68;;
29330;SDS011;16331;52.528;13.342;2022-12-10T09:25:46;21.77;;;8.10;;
29330;SDS011;16331;52.528;13.342;2022-12-10T09:28:14;21.45;;;8.45;;
29330;SDS011;16331;52.528;13.342;2022-12-10T09:30:43;24.30;;;8.30;;
29330;SDS011;16331;52.528;13.342;2022-12-10T09:33:11;24.83;;;8.55;;
29330;SDS011;16331;52.528;13.342;2022-12-10T09:35:40;21.23;;;9.00;;
29330;SDS011;16331;52.528;13.342;2022-12-10T09:38:07;19.13;;;7.68;;
29330;SDS011;16331;52.528;13.342;2022-12-10T09:40:58;21.92;;;7.63;;
29330;SDS011;16331;52.528;13.342;2022-12-10T09:43:48;13.13;;;6.93;;
29330;SDS011;16331;52.528;13.342;2022-12-10T09:46:23;20.17;;;7.95;;
29330;SDS011;16331;52.528;13.342;2022-12-10T09:49:17;22.88;;;7.80;;
29330;SDS011;16331;52.528;13.342;2022-12-10T09:51:50;18.77;;;7.70;;
29330;SDS011;16331;52.528;13.342;2022-12-10T09:54:48;23.27;;;8.27;;
29330;SDS011;16331;52.528;13.342;2022-12-10T09:57:36;16.00;;;6.47;;
29330;SDS011;16331;52.528;13.342;2022-12-10T10:02:45;19.67;;;8.75;;
29330;SDS011;16331;52.528;13.342;2022-12-10T10:05:22;21.00;;;8.75;;
29330;SDS011;16331;52.528;13.342;2022-12-10T10:07:54;19.83;;;7.75;;
29330;SDS011;16331;52.528;13.342;2022-12-10T10:12:58;17.55;;;8.05;;
29330;SDS011;16331;52.528;13.342;2022-12-10T10:15:35;17.88;;;7.82;;
29330;SDS011;16331;52.528;13.342;2022-12-10T10:20:48;21.42;;;8.70;;
29330;SDS011;16331;52.528;13.342;2022-12-10T10:23:15;16.40;;;8.65;;
29330;SDS011;16331;52.528;13.342;2022-12-10T10:25:42;20.90;;;8.30;;
29330;SDS011;16331;52.528;13.342;2022-12-10T10:28:16;24.85;;;10.07;;
29330;SDS011;16331;52.528;13.342;2022-12-10T10:30:44;15.50;;;7.90;;
29330;SDS011;16331;52.528;13.342;2022-12-10T10:33:12;25.38;;;9.43;;
29330;SDS011;16331;52.528;13.342;2022-12-10T10:35:58;19.95;;;8.93;;
29330;SDS011;16331;52.528;13.342;2022-12-10T10:38:28;20.40;;;7.85;;
29330;SDS011;16331;52.528;13.342;2022-12-10T10:40:59;20.13;;;8.90;;
29330;SDS011;16331;52.528;13.342;2022-12-10T10:43:31;21.13;;;8.48;;
29330;SDS011;16331;52.528;13.342;2022-12-10T10:46:12;20.40;;;9.18;;
29330;SDS011;16331;52.528;13.342;2022-12-10T10:48:39;15.20;;;6.75;;
29330;SDS011;16331;52.528;13.342;2022-12-10T10:53:42;21.42;;;8.63;;
29330;SDS011;16331;52.528;13.342;2022-12-10T10:56:26;28.45;;;9.43;;
29330;SDS011;16331;52.528;13.342;2022-12-10T10:58:56;15.23;;;7.82;;
29330;SDS011;16331;52.528;13.342;2022-12-10T11:02:15;18.75;;;8.77;;
29330;SDS011;16331;52.528;13.342;2022-12-10T11:04:31;17.33;;;8.50;;
29330;SDS011;16331;52.528;13.342;2022-12-10T11:07:14;15.07;;;7.28;;
29330;SDS011;16331;52.528;13.342;2022-12-10T11:09:48;24.65;;;8.52;;
29330;SDS011;16331;52.528;13.342;2022-12-10T11:21:03;21.60;;;7.70;;
29330;SDS011;16331;52.528;13.342;2022-12-10T11:23:39;19.33;;;7.88;;
29330;SDS011;16331;52.528;13.342;2022-12-10T11:28:43;15.57;;;7.47;;
29330;SDS011;16331;52.528;13.342;2022-12-10T11:43:00;19.40;;;8.48;;
29330;SDS011;16331;52.528;13.342;2022-12-10T11:45:44;27.73;;;9.20;;
29330;SDS011;16331;52.528;13.342;2022-12-10T11:57:01;21.63;;;7.57;;
29330;SDS011;16331;52.528;13.342;2022-12-10T12:00:00;20.33;;;7.90;;
29330;SDS011;16331;52.528;13.342;2022-12-10T12:02:54;21.15;;;7.95;;
29330;SDS011;16331;52.528;13.342;2022-12-10T12:11:20;19.88;;;8.90;;
29330;SDS011;16331;52.528;13.342;2022-12-10T12:19:54;19.92;;;8.48;;
29330;SDS011;16331;52.528;13.342;2022-12-10T12:22:26;17.83;;;7.05;;
29330;SDS011;16331;52.528;13.342;2022-12-10T12:25:06;20.27;;;8.52;;
29330;SDS011;16331;52.528;13.342;2022-12-10T12:27:40;24.13;;;10.32;;
29330;SDS011;16331;52.528;13.342;2022-12-10T12:30:17;21.83;;;8.18;;
29330;SDS011;16331;52.528;13.342;2022-12-10T12:32:59;18.52;;;6.93;;
29330;SDS011;16331;52.528;13.342;2022-12-10T12:36:12;17.30;;;7.75;;
29330;SDS011;16331;52.528;13.342;2022-12-10T12:38:45;29.20;;;8.38;;
29330;SDS011;16331;52.528;13.342;2022-12-10T12:41:25;28.27;;;8.18;;
29330;SDS011;16331;52.528;13.342;2022-12-10T12:46:43;18.52;;;7.90;;
29330;SDS011;16331;52.528;13.342;2022-12-10T12:49:34;24.25;;;9.10;;
29330;SDS011;16331;52.528;13.342;2022-12-10T12:54:51;26.13;;;9.63;;
29330;SDS011;16331;52.528;13.342;2022-12-10T12:57:44;22.40;;;9.48;;
29330;SDS011;16331;52.528;13.342;2022-12-10T13:00:12;24.27;;;9.65;;
29330;SDS011;16331;52.528;13.342;2022-12-10T13:05:24;21.75;;;9.10;;
29330;SDS011;16331;52.528;13.342;2022-12-10T13:13:37;23.42;;;8.38;;
29330;SDS011;16331;52.528;13.342;2022-12-10T13:16:45;20.50;;;8.18;;
29330;SDS011;16331;52.528;13.342;2022-12-10T13:21:59;23.05;;;9.00;;
29330;SDS011;16331;52.528;13.342;2022-12-10T13:27:18;21.33;;;7.72;;
29330;SDS011;16331;52.528;13.342;2022-12-10T13:35:26;22.02;;;8.65;;
29330;SDS011;16331;52.528;13.342;2022-12-10T13:38:03;34.85;;;11.43;;
29330;SDS011;16331;52.528;13.342;2022-12-10T13:40:43;24.10;;;9.32;;
29330;SDS011;16331;52.528;13.342;2022-12-10T13:43:39;23.75;;;9.65;;
29330;SDS011;16331;52.528;13.342;2022-12-10T13:46:26;20.50;;;9.00;;
29330;SDS011;16331;52.528;13.342;2022-12-10T13:48:57;16.95;;;8.50;;
29330;SDS011;16331;52.528;13.342;2022-12-10T13:56:51;23.63;;;8.80;;
29330;SDS011;16331;52.528;13.342;2022-12-10T13:59:41;25.55;;;8.95;;
29330;SDS011;16331;52.528;13.342;2022-12-10T14:05:18;28.83;;;10.55;;
29330;SDS011;16331;52.528;13.342;2022-12-10T14:08:05;29.63;;;9.65;;
29330;SDS011;16331;52.528;13.342;2022-12-10T14:10:49;31.33;;;11.57;;
29330;SDS011;16331;52.528;13.342;2022-12-10T14:13:16;25.55;;;10.07;;
29330;SDS011;16331;52.528;13.342;2022-12-10T14:15:47;32.75;;;10.95;;
29330;SDS011;16331;52.528;13.342;2022-12-10T14:18:22;20.80;;;8.98;;
29330;SDS011;16331;52.528;13.342;2022-12-10T14:20:53;27.02;;;9.68;;
29330;SDS011;16331;52.528;13.342;2022-12-10T14:23:22;32.95;;;10.55;;
29330;SDS011;16331;52.528;13.342;2022-12-10T14:26:10;28.85;;;11.90;;
29330;SDS011;16331;52.528;13.342;2022-12-10T14:28:44;28.50;;;9.90;;
29330;SDS011;16331;52.528;13.342;2022-12-10T14:31:16;30.67;;;10.93;;
29330;SDS011;16331;52.528;13.342;2022-12-10T14:33:45;28.17;;;10.18;;
29330;SDS011;16331;52.528;13.342;2022-12-10T14:36:29;23.58;;;9.50;;
29330;SDS011;16331;52.528;13.342;2022-12-10T14:39:02;38.45;;;14.25;;
29330;SDS011;16331;52.528;13.342;2022-12-10T14:41:29;35.08;;;13.85;;
29330;SDS011;16331;52.528;13.342;2022-12-10T14:43:57;28.23;;;10.05;;
29330;SDS011;16331;52.528;13.342;2022-12-10T14:48:56;26.75;;;9.13;;
29330;SDS011;16331;52.528;13.342;2022-12-10T14:51:23;31.30;;;10.00;;
29330;SDS011;16331;52.528;13.342;2022-12-10T14:53:56;25.80;;;10.07;;
29330;SDS011;16331;52.528;13.342;2022-12-10T14:56:29;33.03;;;10.77;;
29330;SDS011;16331;52.528;13.342;2022-12-10T14:59:12;27.80;;;10.15;;
29330;SDS011;16331;52.528;13.342;2022-12-10T15:01:46;31.58;;;10.15;;
29330;SDS011;16331;52.528;13.342;2022-12-10T15:04:21;33.72;;;10.75;;
29330;SDS011;16331;52.528;13.342;2022-12-10T15:06:49;37.20;;;10.95;;
29330;SDS011;16331;52.528;13.342;2022-12-10T15:09:18;26.00;;;8.90;;
29330;SDS011;16331;52.528;13.342;2022-12-10T15:11:54;28.42;;;9.18;;
29330;SDS011;16331;52.528;13.342;2022-12-10T15:14:23;32.15;;;10.32;;
29330;SDS011;16331;52.528;13.342;2022-12-10T15:16:52;27.02;;;9.57;;
29330;SDS011;16331;52.528;13.342;2022-12-10T15:22:02;39.22;;;11.77;;
29330;SDS011;16331;52.528;13.342;2022-12-10T15:24:41;25.63;;;9.15;;
29330;SDS011;16331;52.528;13.342;2022-12-10T15:27:14;31.48;;;9.63;;
29330;SDS011;16331;52.528;13.342;2022-12-10T15:29:47;34.63;;;9.68;;
29330;SDS011;16331;52.528;13.342;2022-12-10T15:32:14;31.52;;;9.93;;
29330;SDS011;16331;52.528;13.342;2022-12-10T15:34:49;34.35;;;10.20;;
29330;SDS011;16331;52.528;13.342;2022-12-10T15:37:40;42.40;;;9.95;;
29330;SDS011;16331;52.528;13.342;2022-12-10T15:40:19;30.55;;;10.23;;
29330;SDS011;16331;52.528;13.342;2022-12-10T15:42:55;32.13;;;9.32;;
29330;SDS011;16331;52.528;13.342;2022-12-10T15:45:39;43.55;;;11.50;;
29330;SDS011;16331;52.528;13.342;2022-12-10T15:48:09;36.70;;;11.10;;
29330;SDS011;16331;52.528;13.342;2022-12-10T15:50:37;35.38;;;11.23;;
29330;SDS011;16331;52.528;13.342;2022-12-10T15:53:11;26.67;;;9.95;;
29330;SDS011;16331;52.528;13.342;2022-12-10T15:55:39;35.88;;;9.80;;
29330;SDS011;16331;52.528;13.342;2022-12-10T15:58:10;30.42;;;8.98;;
29330;SDS011;16331;52.528;13.342;2022-12-10T16:00:36;38.40;;;11.67;;
29330;SDS011;16331;52.528;13.342;2022-12-10T16:03:08;32.33;;;11.07;;
29330;SDS011;16331;52.528;13.342;2022-12-10T16:05:39;47.28;;;10.63;;
29330;SDS011;16331;52.528;13.342;2022-12-10T16:08:19;29.98;;;11.07;;
29330;SDS011;16331;52.528;13.342;2022-12-10T16:10:47;36.22;;;12.07;;
29330;SDS011;16331;52.528;13.342;2022-12-10T16:13:17;45.72;;;10.50;;
29330;SDS011;16331;52.528;13.342;2022-12-10T16:18:22;32.70;;;10.30;;
29330;SDS011;16331;52.528;13.342;2022-12-10T16:20:49;35.45;;;9.82;;
29330;SDS011;16331;52.528;13.342;2022-12-10T16:23:16;30.90;;;10.65;;
29330;SDS011;16331;52.528;13.342;2022-12-10T16:25:44;37.55;;;10.05;;
29330;SDS011;16331;52.528;13.342;2022-12-10T16:28:15;35.90;;;11.15;;
29330;SDS011;16331;52.528;13.342;2022-12-10T16:30:44;35.00;;;8.87;;
29330;SDS011;16331;52.528;13.342;2022-12-10T16:33:14;41.05;;;12.02;;
29330;SDS011;16331;52.528;13.342;2022-12-10T16:35:42;44.53;;;10.88;;
29330;SDS011;16331;52.528;13.342;2022-12-10T16:38:14;54.28;;;13.20;;
29330;SDS011;16331;52.528;13.342;2022-12-10T16:40:41;35.88;;;9.30;;
29330;SDS011;16331;52.528;13.342;2022-12-10T16:43:16;42.50;;;11.38;;
29330;SDS011;16331;52.528;13.342;2022-12-10T16:45:47;39.13;;;12.25;;
29330;SDS011;16331;52.528;13.342;2022-12-10T16:48:15;46.70;;;14.18;;